sensor_id;sensor_type;location;lat;lon;timestamp;P1;durP1;ratioP1;P2;durP2;ratioP2
31206;SDS011;17834;52.992;8.856;2023-07-28T00:02:02;4.13;;;1.98;;
31206;SDS011;17834;52.992;8.856;2023-07-28T00:04:28;3.38;;;1.75;;
31206;SDS011;17834;52.992;8.856;2023-07-28T00:06:54;3.15;;;1.50;;
31206;SDS011;17834;52.992;8.856;2023-07-28T00:09:19;5.43;;;1.45;;
31206;SDS011;17834;52.992;8.856;2023-07-28T00:11:45;2.88;;;1.25;;
31206;SDS011;17834;52.992;8.856;2023-07-28T00:14:10;2.83;;;1.60;;
31206;SDS011;17834;52.992;8.856;2023-07-28T00:16:36;2.13;;;1.20;;
31206;SDS011;17834;52.992;8.856;2023-07-28T00:19:02;2.35;;;1.30;;
31206;SDS011;17834;52.992;8.856;2023-07-28T00:21:28;2.40;;;1.17;;
31206;SDS011;17834;52.992;8.856;2023-07-28T00:23:53;2.63;;;1.38;;
31206;SDS011;17834;52.992;8.856;2023-07-28T00:26:19;1.85;;;1.00;;
31206;SDS011;17834;52.992;8.856;2023-07-28T00:28:44;3.20;;;1.05;;
31206;SDS011;17834;52.992;8.856;2023-07-28T00:31:10;1.90;;;1.00;;
31206;SDS011;17834;52.992;8.856;2023-07-28T00:33:36;1.92;;;1.13;;
31206;SDS011;17834;52.992;8.856;2023-07-28T00:36:02;2.97;;;1.10;;
31206;SDS011;17834;52.992;8.856;2023-07-28T00:38:28;2.47;;;1.23;;
31206;SDS011;17834;52.992;8.856;2023-07-28T00:40:54;3.42;;;1.67;;
31206;SDS011;17834;52.992;8.856;2023-07-28T00:43:19;4.60;;;1.70;;
31206;SDS011;17834;52.992;8.856;2023-07-28T00:45:45;3.72;;;2.10;;
31206;SDS011;17834;52.992;8.856;2023-07-28T00:48:11;4.93;;;2.75;;
31206;SDS011;17834;52.992;8.856;2023-07-28T00:50:39;7.85;;;2.90;;
31206;SDS011;17834;52.992;8.856;2023-07-28T00:53:12;8.82;;;3.10;;
31206;SDS011;17834;52.992;8.856;2023-07-28T00:55:37;7.07;;;3.22;;
31206;SDS011;17834;52.992;8.856;2023-07-28T00:58:03;7.78;;;3.47;;
31206;SDS011;17834;52.992;8.856;2023-07-28T01:00:29;5.68;;;2.67;;
31206;SDS011;17834;52.992;8.856;2023-07-28T01:02:55;7.07;;;3.40;;
31206;SDS011;17834;52.992;8.856;2023-07-28T01:05:21;5.95;;;2.47;;
31206;SDS011;17834;52.992;8.856;2023-07-28T01:08:11;6.32;;;3.45;;
31206;SDS011;17834;52.992;8.856;2023-07-28T01:10:48;7.60;;;2.65;;
31206;SDS011;17834;52.992;8.856;2023-07-28T01:13:15;5.13;;;2.38;;
31206;SDS011;17834;52.992;8.856;2023-07-28T01:15:40;4.20;;;2.40;;
31206;SDS011;17834;52.992;8.856;2023-07-28T01:18:06;4.85;;;2.28;;
31206;SDS011;17834;52.992;8.856;2023-07-28T01:20:32;3.88;;;2.30;;
31206;SDS011;17834;52.992;8.856;2023-07-28T01:23:09;4.78;;;2.08;;
31206;SDS011;17834;52.992;8.856;2023-07-28T01:28:35;5.05;;;2.65;;
31206;SDS011;17834;52.992;8.856;2023-07-28T01:31:04;7.00;;;2.47;;
31206;SDS011;17834;52.992;8.856;2023-07-28T01:33:31;4.90;;;1.80;;
31206;SDS011;17834;52.992;8.856;2023-07-28T01:35:57;3.17;;;1.50;;
31206;SDS011;17834;52.992;8.856;2023-07-28T01:38:24;5.72;;;1.92;;
31206;SDS011;17834;52.992;8.856;2023-07-28T01:40:49;3.47;;;1.83;;
31206;SDS011;17834;52.992;8.856;2023-07-28T01:43:15;3.40;;;1.80;;
31206;SDS011;17834;52.992;8.856;2023-07-28T01:45:40;3.60;;;1.48;;
31206;SDS011;17834;52.992;8.856;2023-07-28T01:48:06;2.80;;;1.00;;
31206;SDS011;17834;52.992;8.856;2023-07-28T01:50:34;2.80;;;0.98;;
31206;SDS011;17834;52.992;8.856;2023-07-28T01:53:00;2.25;;;1.08;;
31206;SDS011;17834;52.992;8.856;2023-07-28T01:55:26;2.65;;;1.10;;
31206;SDS011;17834;52.992;8.856;2023-07-28T01:57:58;2.70;;;1.15;;
31206;SDS011;17834;52.992;8.856;2023-07-28T02:00:25;1.98;;;0.90;;
31206;SDS011;17834;52.992;8.856;2023-07-28T02:02:52;1.77;;;0.65;;
31206;SDS011;17834;52.992;8.856;2023-07-28T02:05:18;1.90;;;0.95;;
31206;SDS011;17834;52.992;8.856;2023-07-28T02:07:44;1.60;;;0.75;;
31206;SDS011;17834;52.992;8.856;2023-07-28T02:10:10;2.30;;;1.10;;
31206;SDS011;17834;52.992;8.856;2023-07-28T02:12:36;2.33;;;0.98;;
31206;SDS011;17834;52.992;8.856;2023-07-28T02:15:02;2.47;;;1.05;;
31206;SDS011;17834;52.992;8.856;2023-07-28T02:17:28;3.47;;;1.25;;
31206;SDS011;17834;52.992;8.856;2023-07-28T02:19:53;2.08;;;1.27;;
31206;SDS011;17834;52.992;8.856;2023-07-28T02:22:19;2.95;;;1.02;;
31206;SDS011;17834;52.992;8.856;2023-07-28T02:24:44;4.38;;;1.23;;
31206;SDS011;17834;52.992;8.856;2023-07-28T02:27:10;5.60;;;1.52;;
31206;SDS011;17834;52.992;8.856;2023-07-28T02:29:35;3.20;;;1.90;;
31206;SDS011;17834;52.992;8.856;2023-07-28T02:32:01;4.05;;;2.33;;
31206;SDS011;17834;52.992;8.856;2023-07-28T02:34:27;4.72;;;2.20;;
31206;SDS011;17834;52.992;8.856;2023-07-28T02:36:52;5.13;;;3.00;;
31206;SDS011;17834;52.992;8.856;2023-07-28T02:39:18;5.18;;;2.63;;
31206;SDS011;17834;52.992;8.856;2023-07-28T02:41:44;3.65;;;2.72;;
31206;SDS011;17834;52.992;8.856;2023-07-28T02:44:09;5.38;;;2.67;;
31206;SDS011;17834;52.992;8.856;2023-07-28T02:46:35;6.40;;;2.80;;
31206;SDS011;17834;52.992;8.856;2023-07-28T02:49:02;4.15;;;2.22;;
31206;SDS011;17834;52.992;8.856;2023-07-28T02:51:28;8.02;;;3.17;;
31206;SDS011;17834;52.992;8.856;2023-07-28T02:53:54;7.53;;;2.88;;
31206;SDS011;17834;52.992;8.856;2023-07-28T02:56:20;5.78;;;2.90;;
31206;SDS011;17834;52.992;8.856;2023-07-28T02:58:46;6.03;;;2.28;;
31206;SDS011;17834;52.992;8.856;2023-07-28T03:01:13;5.53;;;2.30;;
31206;SDS011;17834;52.992;8.856;2023-07-28T03:03:38;6.25;;;2.58;;
31206;SDS011;17834;52.992;8.856;2023-07-28T03:06:04;4.63;;;2.45;;
31206;SDS011;17834;52.992;8.856;2023-07-28T03:08:30;6.13;;;2.72;;
31206;SDS011;17834;52.992;8.856;2023-07-28T03:10:58;5.85;;;2.72;;
31206;SDS011;17834;52.992;8.856;2023-07-28T03:13:27;5.55;;;2.55;;
31206;SDS011;17834;52.992;8.856;2023-07-28T03:15:53;5.05;;;2.53;;
31206;SDS011;17834;52.992;8.856;2023-07-28T03:18:18;4.75;;;2.60;;
31206;SDS011;17834;52.992;8.856;2023-07-28T03:20:45;6.38;;;2.83;;
31206;SDS011;17834;52.992;8.856;2023-07-28T03:23:11;8.85;;;3.85;;
31206;SDS011;17834;52.992;8.856;2023-07-28T03:25:37;6.22;;;3.30;;
31206;SDS011;17834;52.992;8.856;2023-07-28T03:28:02;5.68;;;3.10;;
31206;SDS011;17834;52.992;8.856;2023-07-28T03:30:28;7.25;;;3.40;;
31206;SDS011;17834;52.992;8.856;2023-07-28T03:32:53;5.47;;;2.80;;
31206;SDS011;17834;52.992;8.856;2023-07-28T03:35:19;10.88;;;3.60;;
31206;SDS011;17834;52.992;8.856;2023-07-28T03:37:44;8.23;;;3.53;;
31206;SDS011;17834;52.992;8.856;2023-07-28T03:40:10;6.68;;;3.22;;
31206;SDS011;17834;52.992;8.856;2023-07-28T03:42:35;8.05;;;3.85;;
31206;SDS011;17834;52.992;8.856;2023-07-28T03:45:02;6.97;;;3.42;;
31206;SDS011;17834;52.992;8.856;2023-07-28T03:47:28;10.10;;;3.75;;
31206;SDS011;17834;52.992;8.856;2023-07-28T03:49:54;9.95;;;4.50;;
31206;SDS011;17834;52.992;8.856;2023-07-28T03:52:19;10.82;;;5.38;;
31206;SDS011;17834;52.992;8.856;2023-07-28T03:54:45;15.60;;;6.03;;
31206;SDS011;17834;52.992;8.856;2023-07-28T03:57:10;15.25;;;6.97;;
31206;SDS011;17834;52.992;8.856;2023-07-28T03:59:36;17.90;;;6.72;;
31206;SDS011;17834;52.992;8.856;2023-07-28T04:02:01;16.50;;;6.63;;
31206;SDS011;17834;52.992;8.856;2023-07-28T04:04:27;17.02;;;7.05;;
31206;SDS011;17834;52.992;8.856;2023-07-28T04:06:53;15.82;;;6.60;;
31206;SDS011;17834;52.992;8.856;2023-07-28T04:09:18;23.70;;;7.85;;
31206;SDS011;17834;52.992;8.856;2023-07-28T04:11:44;21.48;;;8.30;;
31206;SDS011;17834;52.992;8.856;2023-07-28T04:14:10;19.52;;;8.00;;
31206;SDS011;17834;52.992;8.856;2023-07-28T04:16:36;24.48;;;8.20;;
31206;SDS011;17834;52.992;8.856;2023-07-28T04:19:02;18.80;;;7.20;;
31206;SDS011;17834;52.992;8.856;2023-07-28T04:21:27;24.23;;;8.60;;
31206;SDS011;17834;52.992;8.856;2023-07-28T04:23:53;21.08;;;9.05;;
31206;SDS011;17834;52.992;8.856;2023-07-28T04:26:18;24.52;;;9.05;;
31206;SDS011;17834;52.992;8.856;2023-07-28T04:28:44;17.27;;;7.68;;
31206;SDS011;17834;52.992;8.856;2023-07-28T04:31:10;30.85;;;8.73;;
31206;SDS011;17834;52.992;8.856;2023-07-28T04:33:36;22.58;;;8.23;;
31206;SDS011;17834;52.992;8.856;2023-07-28T04:36:04;23.80;;;8.13;;
31206;SDS011;17834;52.992;8.856;2023-07-28T04:38:30;22.38;;;8.10;;
31206;SDS011;17834;52.992;8.856;2023-07-28T04:40:56;22.63;;;8.38;;
31206;SDS011;17834;52.992;8.856;2023-07-28T04:43:21;20.15;;;8.32;;
31206;SDS011;17834;52.992;8.856;2023-07-28T04:45:47;19.55;;;8.20;;
31206;SDS011;17834;52.992;8.856;2023-07-28T04:48:12;23.67;;;9.05;;
31206;SDS011;17834;52.992;8.856;2023-07-28T04:50:38;34.20;;;10.73;;
31206;SDS011;17834;52.992;8.856;2023-07-28T04:53:03;26.80;;;10.15;;
31206;SDS011;17834;52.992;8.856;2023-07-28T04:55:29;28.85;;;10.50;;
31206;SDS011;17834;52.992;8.856;2023-07-28T04:57:55;29.17;;;10.48;;
31206;SDS011;17834;52.992;8.856;2023-07-28T05:00:21;31.13;;;11.20;;
31206;SDS011;17834;52.992;8.856;2023-07-28T05:02:46;30.15;;;10.98;;
31206;SDS011;17834;52.992;8.856;2023-07-28T05:05:12;33.22;;;10.85;;
31206;SDS011;17834;52.992;8.856;2023-07-28T05:07:37;33.35;;;10.82;;
31206;SDS011;17834;52.992;8.856;2023-07-28T05:10:03;33.25;;;10.70;;
31206;SDS011;17834;52.992;8.856;2023-07-28T05:12:29;40.55;;;12.48;;
31206;SDS011;17834;52.992;8.856;2023-07-28T05:14:54;28.65;;;10.32;;
31206;SDS011;17834;52.992;8.856;2023-07-28T05:17:20;35.35;;;11.95;;
31206;SDS011;17834;52.992;8.856;2023-07-28T05:19:45;33.78;;;11.40;;
31206;SDS011;17834;52.992;8.856;2023-07-28T05:22:11;27.58;;;10.93;;
31206;SDS011;17834;52.992;8.856;2023-07-28T05:24:36;34.10;;;10.80;;
31206;SDS011;17834;52.992;8.856;2023-07-28T05:27:02;32.75;;;11.85;;
31206;SDS011;17834;52.992;8.856;2023-07-28T05:29:27;33.67;;;12.02;;
31206;SDS011;17834;52.992;8.856;2023-07-28T05:31:53;37.38;;;12.52;;
31206;SDS011;17834;52.992;8.856;2023-07-28T05:34:19;40.67;;;13.15;;
31206;SDS011;17834;52.992;8.856;2023-07-28T05:36:44;33.58;;;11.38;;
31206;SDS011;17834;52.992;8.856;2023-07-28T05:39:10;33.28;;;12.30;;
31206;SDS011;17834;52.992;8.856;2023-07-28T05:41:36;32.88;;;11.48;;
31206;SDS011;17834;52.992;8.856;2023-07-28T05:44:02;31.00;;;12.32;;
31206;SDS011;17834;52.992;8.856;2023-07-28T05:46:28;32.92;;;11.35;;
31206;SDS011;17834;52.992;8.856;2023-07-28T05:48:54;30.02;;;12.02;;
31206;SDS011;17834;52.992;8.856;2023-07-28T05:51:21;36.00;;;14.23;;
31206;SDS011;17834;52.992;8.856;2023-07-28T05:53:47;29.17;;;12.00;;
31206;SDS011;17834;52.992;8.856;2023-07-28T05:56:12;34.90;;;12.27;;
31206;SDS011;17834;52.992;8.856;2023-07-28T05:58:38;33.50;;;12.48;;
31206;SDS011;17834;52.992;8.856;2023-07-28T06:01:04;33.70;;;12.18;;
31206;SDS011;17834;52.992;8.856;2023-07-28T06:03:29;31.38;;;12.85;;
31206;SDS011;17834;52.992;8.856;2023-07-28T06:05:55;37.55;;;13.68;;
31206;SDS011;17834;52.992;8.856;2023-07-28T06:08:21;34.38;;;13.60;;
31206;SDS011;17834;52.992;8.856;2023-07-28T06:10:47;36.13;;;12.73;;
31206;SDS011;17834;52.992;8.856;2023-07-28T06:13:13;35.50;;;12.90;;
31206;SDS011;17834;52.992;8.856;2023-07-28T06:15:39;32.88;;;11.80;;
31206;SDS011;17834;52.992;8.856;2023-07-28T06:18:05;34.65;;;13.20;;
31206;SDS011;17834;52.992;8.856;2023-07-28T06:20:30;30.13;;;13.35;;
31206;SDS011;17834;52.992;8.856;2023-07-28T06:22:56;28.88;;;12.13;;
31206;SDS011;17834;52.992;8.856;2023-07-28T06:25:21;29.92;;;13.38;;
31206;SDS011;17834;52.992;8.856;2023-07-28T06:27:47;24.77;;;11.25;;
31206;SDS011;17834;52.992;8.856;2023-07-28T06:30:12;23.23;;;10.77;;
31206;SDS011;17834;52.992;8.856;2023-07-28T06:32:38;27.90;;;11.27;;
31206;SDS011;17834;52.992;8.856;2023-07-28T06:35:04;25.85;;;11.45;;
31206;SDS011;17834;52.992;8.856;2023-07-28T06:37:32;24.58;;;10.50;;
31206;SDS011;17834;52.992;8.856;2023-07-28T06:39:58;22.17;;;10.05;;
31206;SDS011;17834;52.992;8.856;2023-07-28T06:42:24;29.42;;;13.30;;
31206;SDS011;17834;52.992;8.856;2023-07-28T06:44:51;25.10;;;11.57;;
31206;SDS011;17834;52.992;8.856;2023-07-28T06:47:17;27.05;;;12.18;;
31206;SDS011;17834;52.992;8.856;2023-07-28T06:49:43;27.25;;;11.63;;
31206;SDS011;17834;52.992;8.856;2023-07-28T06:52:09;27.08;;;12.10;;
31206;SDS011;17834;52.992;8.856;2023-07-28T06:54:36;28.65;;;11.77;;
31206;SDS011;17834;52.992;8.856;2023-07-28T06:57:02;24.65;;;11.90;;
31206;SDS011;17834;52.992;8.856;2023-07-28T06:59:27;31.33;;;12.90;;
31206;SDS011;17834;52.992;8.856;2023-07-28T07:01:53;25.73;;;12.05;;
31206;SDS011;17834;52.992;8.856;2023-07-28T07:04:19;25.08;;;12.27;;
31206;SDS011;17834;52.992;8.856;2023-07-28T07:06:44;22.85;;;11.45;;
31206;SDS011;17834;52.992;8.856;2023-07-28T07:09:10;28.33;;;13.00;;
31206;SDS011;17834;52.992;8.856;2023-07-28T07:11:39;22.55;;;11.65;;
31206;SDS011;17834;52.992;8.856;2023-07-28T07:14:05;27.55;;;12.65;;
31206;SDS011;17834;52.992;8.856;2023-07-28T07:16:31;27.48;;;13.25;;
31206;SDS011;17834;52.992;8.856;2023-07-28T07:18:56;20.25;;;10.73;;
31206;SDS011;17834;52.992;8.856;2023-07-28T07:21:22;21.70;;;11.18;;
31206;SDS011;17834;52.992;8.856;2023-07-28T07:23:47;21.45;;;10.63;;
31206;SDS011;17834;52.992;8.856;2023-07-28T07:26:13;21.13;;;10.65;;
31206;SDS011;17834;52.992;8.856;2023-07-28T07:28:38;21.55;;;10.02;;
31206;SDS011;17834;52.992;8.856;2023-07-28T07:31:04;23.08;;;12.27;;
31206;SDS011;17834;52.992;8.856;2023-07-28T07:33:36;22.23;;;11.18;;
31206;SDS011;17834;52.992;8.856;2023-07-28T07:36:02;21.65;;;11.02;;
31206;SDS011;17834;52.992;8.856;2023-07-28T07:38:28;22.58;;;11.02;;
31206;SDS011;17834;52.992;8.856;2023-07-28T07:40:53;18.70;;;10.55;;
31206;SDS011;17834;52.992;8.856;2023-07-28T07:43:19;26.98;;;12.80;;
31206;SDS011;17834;52.992;8.856;2023-07-28T07:45:45;22.67;;;12.88;;
31206;SDS011;17834;52.992;8.856;2023-07-28T07:48:12;21.08;;;11.18;;
31206;SDS011;17834;52.992;8.856;2023-07-28T07:50:38;20.33;;;10.48;;
31206;SDS011;17834;52.992;8.856;2023-07-28T07:53:04;20.27;;;11.40;;
31206;SDS011;17834;52.992;8.856;2023-07-28T07:55:29;18.27;;;10.70;;
31206;SDS011;17834;52.992;8.856;2023-07-28T07:57:56;21.02;;;10.35;;
31206;SDS011;17834;52.992;8.856;2023-07-28T08:00:22;23.83;;;11.68;;
31206;SDS011;17834;52.992;8.856;2023-07-28T08:02:48;18.40;;;11.15;;
31206;SDS011;17834;52.992;8.856;2023-07-28T08:05:14;22.83;;;11.75;;
31206;SDS011;17834;52.992;8.856;2023-07-28T08:07:40;19.13;;;11.55;;
31206;SDS011;17834;52.992;8.856;2023-07-28T08:10:06;21.88;;;11.82;;
31206;SDS011;17834;52.992;8.856;2023-07-28T08:12:32;17.08;;;10.30;;
31206;SDS011;17834;52.992;8.856;2023-07-28T08:14:58;18.67;;;11.65;;
31206;SDS011;17834;52.992;8.856;2023-07-28T08:17:24;21.08;;;10.30;;
31206;SDS011;17834;52.992;8.856;2023-07-28T08:19:50;15.88;;;9.82;;
31206;SDS011;17834;52.992;8.856;2023-07-28T08:22:16;17.98;;;10.30;;
31206;SDS011;17834;52.992;8.856;2023-07-28T08:24:41;19.13;;;10.55;;
31206;SDS011;17834;52.992;8.856;2023-07-28T08:27:07;16.23;;;10.18;;
31206;SDS011;17834;52.992;8.856;2023-07-28T08:29:33;25.67;;;10.02;;
31206;SDS011;17834;52.992;8.856;2023-07-28T08:31:58;17.30;;;9.38;;
31206;SDS011;17834;52.992;8.856;2023-07-28T08:34:24;17.30;;;10.45;;
31206;SDS011;17834;52.992;8.856;2023-07-28T08:36:49;16.45;;;9.85;;
31206;SDS011;17834;52.992;8.856;2023-07-28T08:39:17;15.88;;;9.18;;
31206;SDS011;17834;52.992;8.856;2023-07-28T08:41:43;19.02;;;10.23;;
31206;SDS011;17834;52.992;8.856;2023-07-28T08:44:08;13.30;;;9.15;;
31206;SDS011;17834;52.992;8.856;2023-07-28T08:46:34;13.00;;;8.07;;
31206;SDS011;17834;52.992;8.856;2023-07-28T08:49:01;12.48;;;8.02;;
31206;SDS011;17834;52.992;8.856;2023-07-28T08:51:26;19.58;;;8.20;;
31206;SDS011;17834;52.992;8.856;2023-07-28T08:53:52;14.07;;;7.97;;
31206;SDS011;17834;52.992;8.856;2023-07-28T08:56:18;19.92;;;8.43;;
31206;SDS011;17834;52.992;8.856;2023-07-28T08:58:44;16.52;;;8.45;;
31206;SDS011;17834;52.992;8.856;2023-07-28T09:01:10;13.82;;;8.35;;
31206;SDS011;17834;52.992;8.856;2023-07-28T09:03:35;12.15;;;8.32;;
31206;SDS011;17834;52.992;8.856;2023-07-28T09:06:06;12.98;;;7.45;;
31206;SDS011;17834;52.992;8.856;2023-07-28T09:08:35;12.18;;;6.82;;
31206;SDS011;17834;52.992;8.856;2023-07-28T09:11:02;11.55;;;7.10;;
31206;SDS011;17834;52.992;8.856;2023-07-28T09:13:35;13.57;;;7.15;;
31206;SDS011;17834;52.992;8.856;2023-07-28T09:16:02;13.77;;;7.60;;
31206;SDS011;17834;52.992;8.856;2023-07-28T09:18:28;12.10;;;7.43;;
31206;SDS011;17834;52.992;8.856;2023-07-28T09:20:54;13.70;;;7.25;;
31206;SDS011;17834;52.992;8.856;2023-07-28T09:23:27;12.20;;;6.82;;
31206;SDS011;17834;52.992;8.856;2023-07-28T09:25:58;10.27;;;6.07;;
31206;SDS011;17834;52.992;8.856;2023-07-28T09:28:39;9.63;;;5.80;;
31206;SDS011;17834;52.992;8.856;2023-07-28T09:31:06;10.75;;;5.78;;
31206;SDS011;17834;52.992;8.856;2023-07-28T09:33:33;12.13;;;6.25;;
31206;SDS011;17834;52.992;8.856;2023-07-28T09:36:06;9.07;;;5.22;;
31206;SDS011;17834;52.992;8.856;2023-07-28T09:38:36;10.53;;;5.57;;
31206;SDS011;17834;52.992;8.856;2023-07-28T09:41:06;9.55;;;5.53;;
31206;SDS011;17834;52.992;8.856;2023-07-28T09:43:36;11.38;;;5.38;;
31206;SDS011;17834;52.992;8.856;2023-07-28T09:46:04;8.90;;;5.20;;
31206;SDS011;17834;52.992;8.856;2023-07-28T09:48:31;8.30;;;4.60;;
31206;SDS011;17834;52.992;8.856;2023-07-28T09:50:59;6.68;;;4.35;;
31206;SDS011;17834;52.992;8.856;2023-07-28T09:53:30;6.57;;;4.72;;
31206;SDS011;17834;52.992;8.856;2023-07-28T09:56:01;8.85;;;4.53;;
31206;SDS011;17834;52.992;8.856;2023-07-28T09:58:27;7.68;;;4.38;;
31206;SDS011;17834;52.992;8.856;2023-07-28T10:00:58;6.43;;;4.38;;
31206;SDS011;17834;52.992;8.856;2023-07-28T10:03:25;6.80;;;4.45;;
31206;SDS011;17834;52.992;8.856;2023-07-28T10:05:51;9.07;;;5.28;;
31206;SDS011;17834;52.992;8.856;2023-07-28T10:08:17;6.60;;;4.55;;
31206;SDS011;17834;52.992;8.856;2023-07-28T10:10:44;10.93;;;4.30;;
31206;SDS011;17834;52.992;8.856;2023-07-28T10:13:19;6.82;;;4.32;;
31206;SDS011;17834;52.992;8.856;2023-07-28T10:15:46;8.40;;;3.97;;
31206;SDS011;17834;52.992;8.856;2023-07-28T10:18:13;6.85;;;4.15;;
31206;SDS011;17834;52.992;8.856;2023-07-28T10:20:39;6.20;;;4.03;;
31206;SDS011;17834;52.992;8.856;2023-07-28T10:23:11;5.40;;;3.75;;
31206;SDS011;17834;52.992;8.856;2023-07-28T10:25:42;6.10;;;3.47;;
31206;SDS011;17834;52.992;8.856;2023-07-28T10:31:00;5.65;;;3.80;;
31206;SDS011;17834;52.992;8.856;2023-07-28T10:33:30;5.93;;;3.40;;
31206;SDS011;17834;52.992;8.856;2023-07-28T10:35:58;6.00;;;4.03;;
31206;SDS011;17834;52.992;8.856;2023-07-28T10:38:28;6.38;;;3.70;;
31206;SDS011;17834;52.992;8.856;2023-07-28T10:41:15;6.15;;;4.15;;
31206;SDS011;17834;52.992;8.856;2023-07-28T10:43:42;6.60;;;4.55;;
31206;SDS011;17834;52.992;8.856;2023-07-28T10:46:09;7.50;;;4.95;;
31206;SDS011;17834;52.992;8.856;2023-07-28T10:48:39;7.57;;;4.47;;
31206;SDS011;17834;52.992;8.856;2023-07-28T10:51:07;5.85;;;4.68;;
31206;SDS011;17834;52.992;8.856;2023-07-28T10:53:32;7.50;;;4.45;;
31206;SDS011;17834;52.992;8.856;2023-07-28T10:55:59;6.78;;;4.47;;
31206;SDS011;17834;52.992;8.856;2023-07-28T10:58:25;9.05;;;4.45;;
31206;SDS011;17834;52.992;8.856;2023-07-28T11:00:51;11.57;;;5.18;;
31206;SDS011;17834;52.992;8.856;2023-07-28T11:03:19;6.25;;;3.60;;
31206;SDS011;17834;52.992;8.856;2023-07-28T11:05:45;9.27;;;3.85;;
31206;SDS011;17834;52.992;8.856;2023-07-28T11:08:12;5.13;;;3.60;;
31206;SDS011;17834;52.992;8.856;2023-07-28T11:10:38;6.18;;;3.80;;
31206;SDS011;17834;52.992;8.856;2023-07-28T11:13:05;4.45;;;3.10;;
31206;SDS011;17834;52.992;8.856;2023-07-28T11:15:31;6.30;;;3.58;;
31206;SDS011;17834;52.992;8.856;2023-07-28T11:17:58;4.95;;;3.15;;
31206;SDS011;17834;52.992;8.856;2023-07-28T11:20:24;4.57;;;2.80;;
31206;SDS011;17834;52.992;8.856;2023-07-28T11:22:52;7.20;;;2.90;;
31206;SDS011;17834;52.992;8.856;2023-07-28T11:25:19;5.47;;;2.80;;
31206;SDS011;17834;52.992;8.856;2023-07-28T11:27:46;6.97;;;2.95;;
31206;SDS011;17834;52.992;8.856;2023-07-28T11:30:12;6.57;;;3.28;;
31206;SDS011;17834;52.992;8.856;2023-07-28T11:32:42;6.15;;;2.83;;
31206;SDS011;17834;52.992;8.856;2023-07-28T11:35:09;5.13;;;2.85;;
31206;SDS011;17834;52.992;8.856;2023-07-28T11:37:37;4.25;;;2.75;;
31206;SDS011;17834;52.992;8.856;2023-07-28T11:40:04;6.28;;;2.70;;
31206;SDS011;17834;52.992;8.856;2023-07-28T11:42:45;4.97;;;2.63;;
31206;SDS011;17834;52.992;8.856;2023-07-28T11:45:16;6.88;;;3.15;;
31206;SDS011;17834;52.992;8.856;2023-07-28T11:47:51;6.50;;;3.10;;
31206;SDS011;17834;52.992;8.856;2023-07-28T11:50:23;7.05;;;3.08;;
31206;SDS011;17834;52.992;8.856;2023-07-28T11:52:50;6.95;;;2.80;;
31206;SDS011;17834;52.992;8.856;2023-07-28T11:55:16;4.45;;;2.20;;
31206;SDS011;17834;52.992;8.856;2023-07-28T11:57:41;5.68;;;2.17;;
31206;SDS011;17834;52.992;8.856;2023-07-28T12:00:08;3.10;;;1.60;;
31206;SDS011;17834;52.992;8.856;2023-07-28T12:02:34;2.92;;;1.63;;
31206;SDS011;17834;52.992;8.856;2023-07-28T12:05:00;6.13;;;1.50;;
31206;SDS011;17834;52.992;8.856;2023-07-28T12:07:29;2.50;;;1.45;;
31206;SDS011;17834;52.992;8.856;2023-07-28T12:09:56;2.17;;;1.77;;
31206;SDS011;17834;52.992;8.856;2023-07-28T12:12:26;3.50;;;1.63;;
31206;SDS011;17834;52.992;8.856;2023-07-28T12:14:56;2.63;;;1.58;;
31206;SDS011;17834;52.992;8.856;2023-07-28T12:17:29;3.20;;;1.90;;
31206;SDS011;17834;52.992;8.856;2023-07-28T12:20:08;3.78;;;1.60;;
31206;SDS011;17834;52.992;8.856;2023-07-28T12:22:40;6.93;;;2.00;;
31206;SDS011;17834;52.992;8.856;2023-07-28T12:25:07;3.33;;;1.75;;
31206;SDS011;17834;52.992;8.856;2023-07-28T12:27:33;4.85;;;1.73;;
31206;SDS011;17834;52.992;8.856;2023-07-28T12:29:59;2.72;;;2.00;;
31206;SDS011;17834;52.992;8.856;2023-07-28T12:32:25;4.50;;;2.17;;
31206;SDS011;17834;52.992;8.856;2023-07-28T12:34:50;4.03;;;2.45;;
31206;SDS011;17834;52.992;8.856;2023-07-28T12:37:16;4.57;;;1.98;;
31206;SDS011;17834;52.992;8.856;2023-07-28T12:39:42;4.22;;;1.83;;
31206;SDS011;17834;52.992;8.856;2023-07-28T12:42:09;2.10;;;1.45;;
31206;SDS011;17834;52.992;8.856;2023-07-28T12:44:35;2.53;;;1.75;;
31206;SDS011;17834;52.992;8.856;2023-07-28T12:47:02;5.88;;;2.00;;
31206;SDS011;17834;52.992;8.856;2023-07-28T12:49:28;2.78;;;1.85;;
31206;SDS011;17834;52.992;8.856;2023-07-28T12:51:55;4.03;;;1.80;;
31206;SDS011;17834;52.992;8.856;2023-07-28T12:54:21;4.68;;;1.60;;
31206;SDS011;17834;52.992;8.856;2023-07-28T12:56:47;1.70;;;1.20;;
31206;SDS011;17834;52.992;8.856;2023-07-28T12:59:13;1.92;;;1.23;;
31206;SDS011;17834;52.992;8.856;2023-07-28T13:01:39;3.72;;;1.80;;
31206;SDS011;17834;52.992;8.856;2023-07-28T13:04:05;4.07;;;1.50;;
31206;SDS011;17834;52.992;8.856;2023-07-28T13:06:31;2.25;;;1.50;;
31206;SDS011;17834;52.992;8.856;2023-07-28T13:08:57;3.28;;;2.10;;
31206;SDS011;17834;52.992;8.856;2023-07-28T13:11:22;2.97;;;1.80;;
31206;SDS011;17834;52.992;8.856;2023-07-28T13:13:48;3.42;;;1.95;;
31206;SDS011;17834;52.992;8.856;2023-07-28T13:16:13;2.15;;;1.50;;
31206;SDS011;17834;52.992;8.856;2023-07-28T13:18:39;2.53;;;1.50;;
31206;SDS011;17834;52.992;8.856;2023-07-28T13:21:05;6.00;;;1.98;;
31206;SDS011;17834;52.992;8.856;2023-07-28T13:23:31;7.03;;;2.30;;
31206;SDS011;17834;52.992;8.856;2023-07-28T13:25:57;10.70;;;3.38;;
31206;SDS011;17834;52.992;8.856;2023-07-28T13:28:22;4.78;;;3.28;;
31206;SDS011;17834;52.992;8.856;2023-07-28T13:30:50;5.00;;;3.10;;
31206;SDS011;17834;52.992;8.856;2023-07-28T13:33:16;5.25;;;2.95;;
31206;SDS011;17834;52.992;8.856;2023-07-28T13:35:41;6.65;;;4.05;;
31206;SDS011;17834;52.992;8.856;2023-07-28T13:38:07;5.35;;;3.70;;
31206;SDS011;17834;52.992;8.856;2023-07-28T13:40:33;5.00;;;3.72;;
31206;SDS011;17834;52.992;8.856;2023-07-28T13:42:59;6.45;;;4.35;;
31206;SDS011;17834;52.992;8.856;2023-07-28T13:45:25;9.25;;;4.70;;
31206;SDS011;17834;52.992;8.856;2023-07-28T13:47:50;6.40;;;4.22;;
31206;SDS011;17834;52.992;8.856;2023-07-28T13:50:16;5.22;;;3.50;;
31206;SDS011;17834;52.992;8.856;2023-07-28T13:52:42;7.03;;;3.55;;
31206;SDS011;17834;52.992;8.856;2023-07-28T13:55:07;5.97;;;3.55;;
31206;SDS011;17834;52.992;8.856;2023-07-28T13:57:33;8.25;;;4.18;;
31206;SDS011;17834;52.992;8.856;2023-07-28T13:59:59;6.40;;;4.55;;
31206;SDS011;17834;52.992;8.856;2023-07-28T14:02:24;5.13;;;3.88;;
31206;SDS011;17834;52.992;8.856;2023-07-28T14:04:50;8.55;;;4.40;;
31206;SDS011;17834;52.992;8.856;2023-07-28T14:07:15;5.70;;;3.58;;
31206;SDS011;17834;52.992;8.856;2023-07-28T14:09:41;5.63;;;3.67;;
31206;SDS011;17834;52.992;8.856;2023-07-28T14:12:07;7.55;;;4.13;;
31206;SDS011;17834;52.992;8.856;2023-07-28T14:14:32;5.78;;;3.72;;
31206;SDS011;17834;52.992;8.856;2023-07-28T14:16:58;6.13;;;3.90;;
31206;SDS011;17834;52.992;8.856;2023-07-28T14:19:23;5.72;;;3.33;;
31206;SDS011;17834;52.992;8.856;2023-07-28T14:21:49;5.30;;;3.65;;
31206;SDS011;17834;52.992;8.856;2023-07-28T14:24:15;4.85;;;3.60;;
31206;SDS011;17834;52.992;8.856;2023-07-28T14:26:40;6.18;;;3.65;;
31206;SDS011;17834;52.992;8.856;2023-07-28T14:29:06;6.70;;;3.72;;
31206;SDS011;17834;52.992;8.856;2023-07-28T14:31:31;6.15;;;4.25;;
31206;SDS011;17834;52.992;8.856;2023-07-28T14:33:57;4.57;;;3.47;;
31206;SDS011;17834;52.992;8.856;2023-07-28T14:36:22;8.57;;;4.70;;
31206;SDS011;17834;52.992;8.856;2023-07-28T14:38:48;6.13;;;4.40;;
31206;SDS011;17834;52.992;8.856;2023-07-28T14:41:14;6.43;;;3.88;;